Pagina principală
METAR-TAF:

METAR-TAF

Aeroporturi :

Lowell, Idaho, Statele Unite ale Americii

Latitudine: 46-08-39N, longitudine: 115-35-47W, elevație: 480 m

Observații meteo curente

Raportul a fost făcut în urmă cu 1 oră și 4 de minute, la 14:52 UTC
Vânt calm
Temperatură 3°C
Umiditate 75%
Presiune 1024 hPa

METAR: KP69 201452Z AUTO 00000KT 03/M01 A3023 RMK AO1 SLP248 T00331011 50007 $

Ora: 08:56 (15:56 UTC)


TAF: lipsă

Observații și prognoze meteo pentru peste 4.000 de aeroporturi (rapoarte METAR și TAF).

Stațiile disponibile sunt reprezentate pe hartă prin puncte galbene și roșii.

Țineți indicatorul mouse-ului pe punctul dorit pentru a vedea denumirea stației.

Apoi, faceți clic pentru a vedea observațiile și prognozele meteorologice.

Pentru a schimba harta: Pentru mărire, faceți clic pe butoanele verzi cu cruce neagră; pentru micșorare, pe butonul verde cu o liniuță; pentru hărți învecinate, pe săgețile verzi.


METAR-TAF: